sensor_id;sensor_type;location;lat;lon;timestamp;P1;durP1;ratioP1;P2;durP2;ratioP2
20593;SDS011;10455;48.732;10.266;2023-03-03T00:01:19;71.07;;;37.70;;
20593;SDS011;10455;48.732;10.266;2023-03-03T00:06:24;73.90;;;39.93;;
20593;SDS011;10455;48.732;10.266;2023-03-03T00:11:26;62.70;;;37.20;;
20593;SDS011;10455;48.732;10.266;2023-03-03T00:16:30;61.70;;;36.93;;
20593;SDS011;10455;48.732;10.266;2023-03-03T00:21:39;70.97;;;38.90;;
20593;SDS011;10455;48.732;10.266;2023-03-03T00:26:44;69.17;;;39.67;;
20593;SDS011;10455;48.732;10.266;2023-03-03T00:31:48;57.47;;;37.13;;
20593;SDS011;10455;48.732;10.266;2023-03-03T00:36:50;77.83;;;42.27;;
20593;SDS011;10455;48.732;10.266;2023-03-03T00:41:55;80.90;;;45.00;;
20593;SDS011;10455;48.732;10.266;2023-03-03T00:47:01;86.90;;;48.70;;
20593;SDS011;10455;48.732;10.266;2023-03-03T00:52:26;73.50;;;43.30;;
20593;SDS011;10455;48.732;10.266;2023-03-03T00:57:28;59.03;;;37.67;;
20593;SDS011;10455;48.732;10.266;2023-03-03T01:02:32;59.83;;;35.60;;
20593;SDS011;10455;48.732;10.266;2023-03-03T01:07:33;51.87;;;34.07;;
20593;SDS011;10455;48.732;10.266;2023-03-03T01:12:35;71.40;;;42.93;;
20593;SDS011;10455;48.732;10.266;2023-03-03T01:17:39;63.60;;;40.00;;
20593;SDS011;10455;48.732;10.266;2023-03-03T01:22:42;59.87;;;34.23;;
20593;SDS011;10455;48.732;10.266;2023-03-03T01:27:43;54.70;;;34.27;;
20593;SDS011;10455;48.732;10.266;2023-03-03T01:32:47;64.83;;;40.70;;
20593;SDS011;10455;48.732;10.266;2023-03-03T01:37:49;72.83;;;44.13;;
20593;SDS011;10455;48.732;10.266;2023-03-03T01:42:51;76.67;;;45.10;;
20593;SDS011;10455;48.732;10.266;2023-03-03T01:47:55;74.87;;;44.90;;
20593;SDS011;10455;48.732;10.266;2023-03-03T01:53:02;82.37;;;46.60;;
20593;SDS011;10455;48.732;10.266;2023-03-03T01:58:07;76.40;;;46.97;;
20593;SDS011;10455;48.732;10.266;2023-03-03T02:03:12;78.80;;;46.23;;
20593;SDS011;10455;48.732;10.266;2023-03-03T02:08:14;77.80;;;45.17;;
20593;SDS011;10455;48.732;10.266;2023-03-03T02:13:19;76.07;;;45.57;;
20593;SDS011;10455;48.732;10.266;2023-03-03T02:18:22;73.67;;;44.60;;
20593;SDS011;10455;48.732;10.266;2023-03-03T02:23:26;64.80;;;41.40;;
20593;SDS011;10455;48.732;10.266;2023-03-03T02:28:33;60.00;;;37.57;;
20593;SDS011;10455;48.732;10.266;2023-03-03T02:33:36;72.53;;;43.00;;
20593;SDS011;10455;48.732;10.266;2023-03-03T02:38:38;63.33;;;38.63;;
20593;SDS011;10455;48.732;10.266;2023-03-03T02:43:50;60.57;;;37.83;;
20593;SDS011;10455;48.732;10.266;2023-03-03T02:48:55;55.83;;;36.60;;
20593;SDS011;10455;48.732;10.266;2023-03-03T02:53:57;63.60;;;37.97;;
20593;SDS011;10455;48.732;10.266;2023-03-03T02:59:00;70.17;;;40.67;;
20593;SDS011;10455;48.732;10.266;2023-03-03T03:04:04;65.87;;;39.90;;
20593;SDS011;10455;48.732;10.266;2023-03-03T03:09:07;60.80;;;37.77;;
20593;SDS011;10455;48.732;10.266;2023-03-03T03:14:11;60.07;;;37.20;;
20593;SDS011;10455;48.732;10.266;2023-03-03T03:19:14;57.10;;;37.17;;
20593;SDS011;10455;48.732;10.266;2023-03-03T03:24:16;61.53;;;37.90;;
20593;SDS011;10455;48.732;10.266;2023-03-03T03:29:19;62.07;;;38.57;;
20593;SDS011;10455;48.732;10.266;2023-03-03T03:34:21;57.83;;;35.73;;
20593;SDS011;10455;48.732;10.266;2023-03-03T03:39:23;62.13;;;38.57;;
20593;SDS011;10455;48.732;10.266;2023-03-03T03:44:26;72.33;;;39.43;;
20593;SDS011;10455;48.732;10.266;2023-03-03T03:49:28;59.73;;;38.47;;
20593;SDS011;10455;48.732;10.266;2023-03-03T03:54:30;67.13;;;41.10;;
20593;SDS011;10455;48.732;10.266;2023-03-03T03:59:33;69.83;;;43.10;;
20593;SDS011;10455;48.732;10.266;2023-03-03T04:04:35;72.87;;;43.57;;
20593;SDS011;10455;48.732;10.266;2023-03-03T04:09:37;77.20;;;44.77;;
20593;SDS011;10455;48.732;10.266;2023-03-03T04:14:40;77.43;;;45.73;;
20593;SDS011;10455;48.732;10.266;2023-03-03T04:19:42;75.47;;;44.73;;
20593;SDS011;10455;48.732;10.266;2023-03-03T04:24:44;68.33;;;43.60;;
20593;SDS011;10455;48.732;10.266;2023-03-03T04:29:49;80.77;;;47.97;;
20593;SDS011;10455;48.732;10.266;2023-03-03T04:34:50;75.83;;;45.90;;
20593;SDS011;10455;48.732;10.266;2023-03-03T04:39:52;77.63;;;46.47;;
20593;SDS011;10455;48.732;10.266;2023-03-03T04:44:56;83.20;;;49.47;;
20593;SDS011;10455;48.732;10.266;2023-03-03T04:49:57;76.63;;;46.77;;
20593;SDS011;10455;48.732;10.266;2023-03-03T04:54:59;83.03;;;48.77;;
20593;SDS011;10455;48.732;10.266;2023-03-03T05:00:03;84.43;;;48.43;;
20593;SDS011;10455;48.732;10.266;2023-03-03T05:05:06;74.10;;;45.10;;
20593;SDS011;10455;48.732;10.266;2023-03-03T05:10:10;83.30;;;49.03;;
20593;SDS011;10455;48.732;10.266;2023-03-03T05:15:13;86.40;;;49.50;;
20593;SDS011;10455;48.732;10.266;2023-03-03T05:20:15;91.27;;;51.40;;
20593;SDS011;10455;48.732;10.266;2023-03-03T05:25:17;71.43;;;45.73;;
20593;SDS011;10455;48.732;10.266;2023-03-03T05:30:20;79.80;;;46.07;;
20593;SDS011;10455;48.732;10.266;2023-03-03T05:35:22;85.90;;;52.20;;
20593;SDS011;10455;48.732;10.266;2023-03-03T05:40:24;105.87;;;61.87;;
20593;SDS011;10455;48.732;10.266;2023-03-03T05:45:28;102.47;;;58.40;;
20593;SDS011;10455;48.732;10.266;2023-03-03T05:50:30;95.60;;;52.07;;
20593;SDS011;10455;48.732;10.266;2023-03-03T05:55:32;89.37;;;51.57;;
20593;SDS011;10455;48.732;10.266;2023-03-03T06:00:35;84.33;;;50.60;;
20593;SDS011;10455;48.732;10.266;2023-03-03T06:05:37;91.10;;;49.30;;
20593;SDS011;10455;48.732;10.266;2023-03-03T06:10:39;85.23;;;50.43;;
20593;SDS011;10455;48.732;10.266;2023-03-03T06:15:43;86.67;;;50.77;;
20593;SDS011;10455;48.732;10.266;2023-03-03T06:20:49;81.93;;;49.03;;
20593;SDS011;10455;48.732;10.266;2023-03-03T06:25:51;88.13;;;50.83;;
20593;SDS011;10455;48.732;10.266;2023-03-03T06:30:55;87.70;;;49.00;;
20593;SDS011;10455;48.732;10.266;2023-03-03T06:35:57;88.67;;;51.67;;
20593;SDS011;10455;48.732;10.266;2023-03-03T06:40:59;85.17;;;51.10;;
20593;SDS011;10455;48.732;10.266;2023-03-03T06:46:07;89.10;;;51.47;;
20593;SDS011;10455;48.732;10.266;2023-03-03T06:51:14;88.10;;;51.43;;
20593;SDS011;10455;48.732;10.266;2023-03-03T06:56:22;91.73;;;50.80;;
20593;SDS011;10455;48.732;10.266;2023-03-03T07:01:26;85.70;;;51.33;;
20593;SDS011;10455;48.732;10.266;2023-03-03T07:06:30;79.83;;;48.23;;
20593;SDS011;10455;48.732;10.266;2023-03-03T07:11:32;84.37;;;49.80;;
20593;SDS011;10455;48.732;10.266;2023-03-03T07:16:40;75.83;;;45.43;;
20593;SDS011;10455;48.732;10.266;2023-03-03T07:21:42;83.20;;;48.83;;
20593;SDS011;10455;48.732;10.266;2023-03-03T07:26:43;78.10;;;47.20;;
20593;SDS011;10455;48.732;10.266;2023-03-03T07:31:47;292.33;;;123.73;;
20593;SDS011;10455;48.732;10.266;2023-03-03T07:36:51;72.30;;;46.10;;
20593;SDS011;10455;48.732;10.266;2023-03-03T07:41:58;75.97;;;47.33;;
20593;SDS011;10455;48.732;10.266;2023-03-03T07:47:21;68.70;;;44.27;;
20593;SDS011;10455;48.732;10.266;2023-03-03T07:52:26;65.00;;;41.67;;
20593;SDS011;10455;48.732;10.266;2023-03-03T07:57:34;62.17;;;41.47;;
20593;SDS011;10455;48.732;10.266;2023-03-03T08:02:39;62.30;;;41.77;;
20593;SDS011;10455;48.732;10.266;2023-03-03T08:07:43;58.83;;;41.40;;
20593;SDS011;10455;48.732;10.266;2023-03-03T08:12:45;65.63;;;41.47;;
20593;SDS011;10455;48.732;10.266;2023-03-03T08:17:49;66.97;;;42.40;;
20593;SDS011;10455;48.732;10.266;2023-03-03T08:22:52;54.77;;;37.50;;
20593;SDS011;10455;48.732;10.266;2023-03-03T08:27:54;60.67;;;38.47;;
20593;SDS011;10455;48.732;10.266;2023-03-03T08:32:57;56.07;;;37.97;;
20593;SDS011;10455;48.732;10.266;2023-03-03T08:37:59;59.33;;;38.73;;
20593;SDS011;10455;48.732;10.266;2023-03-03T08:43:01;56.47;;;39.33;;
20593;SDS011;10455;48.732;10.266;2023-03-03T08:48:05;55.10;;;38.67;;
20593;SDS011;10455;48.732;10.266;2023-03-03T08:53:09;52.80;;;37.77;;
20593;SDS011;10455;48.732;10.266;2023-03-03T08:58:13;48.43;;;34.27;;
20593;SDS011;10455;48.732;10.266;2023-03-03T09:03:19;48.90;;;31.87;;
20593;SDS011;10455;48.732;10.266;2023-03-03T09:08:27;46.07;;;31.07;;
20593;SDS011;10455;48.732;10.266;2023-03-03T09:13:29;39.47;;;29.00;;
20593;SDS011;10455;48.732;10.266;2023-03-03T09:18:34;42.20;;;30.03;;
20593;SDS011;10455;48.732;10.266;2023-03-03T09:23:38;40.83;;;29.07;;
20593;SDS011;10455;48.732;10.266;2023-03-03T09:28:41;45.37;;;30.17;;
20593;SDS011;10455;48.732;10.266;2023-03-03T09:33:45;44.30;;;28.93;;
20593;SDS011;10455;48.732;10.266;2023-03-03T09:38:51;43.67;;;31.97;;
20593;SDS011;10455;48.732;10.266;2023-03-03T09:43:59;41.23;;;30.17;;
20593;SDS011;10455;48.732;10.266;2023-03-03T09:49:16;40.30;;;29.30;;
20593;SDS011;10455;48.732;10.266;2023-03-03T09:54:29;40.67;;;30.43;;
20593;SDS011;10455;48.732;10.266;2023-03-03T09:59:58;42.40;;;29.97;;
20593;SDS011;10455;48.732;10.266;2023-03-03T10:05:19;42.00;;;29.70;;
20593;SDS011;10455;48.732;10.266;2023-03-03T10:10:39;43.37;;;30.50;;
20593;SDS011;10455;48.732;10.266;2023-03-03T10:16:08;39.30;;;28.63;;
20593;SDS011;10455;48.732;10.266;2023-03-03T10:21:23;39.53;;;29.83;;
20593;SDS011;10455;48.732;10.266;2023-03-03T10:26:36;41.43;;;29.40;;
20593;SDS011;10455;48.732;10.266;2023-03-03T10:31:48;44.93;;;31.60;;
20593;SDS011;10455;48.732;10.266;2023-03-03T10:37:04;40.37;;;30.37;;
20593;SDS011;10455;48.732;10.266;2023-03-03T10:42:25;40.47;;;30.17;;
20593;SDS011;10455;48.732;10.266;2023-03-03T10:47:49;40.87;;;29.03;;
20593;SDS011;10455;48.732;10.266;2023-03-03T10:53:10;34.50;;;27.03;;
20593;SDS011;10455;48.732;10.266;2023-03-03T11:03:50;36.83;;;27.37;;
20593;SDS011;10455;48.732;10.266;2023-03-03T11:09:18;35.20;;;27.23;;
20593;SDS011;10455;48.732;10.266;2023-03-03T11:14:32;32.67;;;28.75;;
20593;SDS011;10455;48.732;10.266;2023-03-03T11:19:47;32.03;;;27.08;;
20593;SDS011;10455;48.732;10.266;2023-03-03T11:24:59;35.43;;;27.10;;
20593;SDS011;10455;48.732;10.266;2023-03-03T11:30:17;31.02;;;25.95;;
20593;SDS011;10455;48.732;10.266;2023-03-03T11:35:34;31.73;;;25.27;;
20593;SDS011;10455;48.732;10.266;2023-03-03T11:40:46;32.45;;;25.38;;
20593;SDS011;10455;48.732;10.266;2023-03-03T11:45:52;28.25;;;24.13;;
20593;SDS011;10455;48.732;10.266;2023-03-03T11:50:58;32.33;;;24.83;;
20593;SDS011;10455;48.732;10.266;2023-03-03T11:56:06;28.80;;;23.83;;
20593;SDS011;10455;48.732;10.266;2023-03-03T12:01:20;27.58;;;24.45;;
20593;SDS011;10455;48.732;10.266;2023-03-03T12:06:29;27.90;;;24.85;;
20593;SDS011;10455;48.732;10.266;2023-03-03T12:11:45;27.05;;;23.88;;
20593;SDS011;10455;48.732;10.266;2023-03-03T12:16:50;26.63;;;23.85;;
20593;SDS011;10455;48.732;10.266;2023-03-03T12:22:08;25.98;;;22.55;;
20593;SDS011;10455;48.732;10.266;2023-03-03T12:27:20;24.67;;;22.02;;
20593;SDS011;10455;48.732;10.266;2023-03-03T12:32:29;27.92;;;22.30;;
20593;SDS011;10455;48.732;10.266;2023-03-03T12:37:47;25.98;;;23.17;;
20593;SDS011;10455;48.732;10.266;2023-03-03T12:42:59;25.35;;;22.73;;
20593;SDS011;10455;48.732;10.266;2023-03-03T12:48:12;26.70;;;22.77;;
20593;SDS011;10455;48.732;10.266;2023-03-03T12:53:21;25.30;;;21.55;;
20593;SDS011;10455;48.732;10.266;2023-03-03T12:58:36;25.48;;;22.73;;
20593;SDS011;10455;48.732;10.266;2023-03-03T13:03:44;31.08;;;24.33;;
20593;SDS011;10455;48.732;10.266;2023-03-03T13:09:00;26.15;;;23.00;;
20593;SDS011;10455;48.732;10.266;2023-03-03T13:14:23;27.67;;;23.95;;
20593;SDS011;10455;48.732;10.266;2023-03-03T13:19:35;26.27;;;23.00;;
20593;SDS011;10455;48.732;10.266;2023-03-03T13:24:44;28.88;;;23.98;;
20593;SDS011;10455;48.732;10.266;2023-03-03T13:29:59;29.35;;;24.05;;
20593;SDS011;10455;48.732;10.266;2023-03-03T13:35:05;29.02;;;23.05;;
20593;SDS011;10455;48.732;10.266;2023-03-03T13:40:18;25.17;;;22.40;;
20593;SDS011;10455;48.732;10.266;2023-03-03T13:45:26;25.23;;;21.35;;
20593;SDS011;10455;48.732;10.266;2023-03-03T13:50:32;25.90;;;22.75;;
20593;SDS011;10455;48.732;10.266;2023-03-03T13:55:40;28.00;;;22.48;;
20593;SDS011;10455;48.732;10.266;2023-03-03T14:00:50;27.30;;;22.67;;
20593;SDS011;10455;48.732;10.266;2023-03-03T14:05:58;25.00;;;22.35;;
20593;SDS011;10455;48.732;10.266;2023-03-03T14:11:06;29.73;;;23.35;;
20593;SDS011;10455;48.732;10.266;2023-03-03T14:16:15;26.70;;;22.67;;
20593;SDS011;10455;48.732;10.266;2023-03-03T14:21:24;26.25;;;22.25;;
20593;SDS011;10455;48.732;10.266;2023-03-03T14:26:29;26.35;;;22.33;;
20593;SDS011;10455;48.732;10.266;2023-03-03T14:31:39;24.17;;;21.52;;
20593;SDS011;10455;48.732;10.266;2023-03-03T14:36:43;25.67;;;21.90;;
20593;SDS011;10455;48.732;10.266;2023-03-03T14:41:46;25.98;;;21.25;;
20593;SDS011;10455;48.732;10.266;2023-03-03T14:46:58;27.60;;;24.17;;
20593;SDS011;10455;48.732;10.266;2023-03-03T14:52:10;29.30;;;24.73;;
20593;SDS011;10455;48.732;10.266;2023-03-03T14:57:21;27.65;;;22.52;;
20593;SDS011;10455;48.732;10.266;2023-03-03T15:02:42;27.38;;;23.65;;
20593;SDS011;10455;48.732;10.266;2023-03-03T15:07:47;27.08;;;22.55;;
20593;SDS011;10455;48.732;10.266;2023-03-03T15:12:53;27.65;;;22.52;;
20593;SDS011;10455;48.732;10.266;2023-03-03T15:17:57;30.33;;;22.50;;
20593;SDS011;10455;48.732;10.266;2023-03-03T15:23:06;26.10;;;21.63;;
20593;SDS011;10455;48.732;10.266;2023-03-03T15:28:35;28.38;;;21.70;;
20593;SDS011;10455;48.732;10.266;2023-03-03T15:33:46;32.28;;;23.20;;
20593;SDS011;10455;48.732;10.266;2023-03-03T15:38:59;34.55;;;24.80;;
20593;SDS011;10455;48.732;10.266;2023-03-03T15:44:10;34.03;;;23.77;;
20593;SDS011;10455;48.732;10.266;2023-03-03T15:49:21;34.27;;;25.50;;
20593;SDS011;10455;48.732;10.266;2023-03-03T15:54:44;32.53;;;24.93;;
20593;SDS011;10455;48.732;10.266;2023-03-03T15:59:57;35.43;;;25.63;;
20593;SDS011;10455;48.732;10.266;2023-03-03T16:05:15;94.67;;;55.30;;
20593;SDS011;10455;48.732;10.266;2023-03-03T16:10:23;43.53;;;28.60;;
20593;SDS011;10455;48.732;10.266;2023-03-03T16:15:38;37.83;;;26.37;;
20593;SDS011;10455;48.732;10.266;2023-03-03T16:20:48;38.03;;;27.47;;
20593;SDS011;10455;48.732;10.266;2023-03-03T16:26:12;38.30;;;27.83;;
20593;SDS011;10455;48.732;10.266;2023-03-03T16:31:22;42.27;;;28.70;;
20593;SDS011;10455;48.732;10.266;2023-03-03T16:36:31;40.93;;;27.63;;
20593;SDS011;10455;48.732;10.266;2023-03-03T16:41:42;37.27;;;26.70;;
20593;SDS011;10455;48.732;10.266;2023-03-03T16:46:51;43.93;;;31.00;;
20593;SDS011;10455;48.732;10.266;2023-03-03T16:51:58;42.60;;;28.90;;
20593;SDS011;10455;48.732;10.266;2023-03-03T16:57:09;44.07;;;31.73;;
20593;SDS011;10455;48.732;10.266;2023-03-03T17:02:31;53.60;;;34.33;;
20593;SDS011;10455;48.732;10.266;2023-03-03T17:07:51;43.87;;;30.50;;
20593;SDS011;10455;48.732;10.266;2023-03-03T17:13:10;69.63;;;44.30;;
20593;SDS011;10455;48.732;10.266;2023-03-03T17:18:28;50.43;;;33.27;;
20593;SDS011;10455;48.732;10.266;2023-03-03T17:23:47;49.20;;;32.83;;
20593;SDS011;10455;48.732;10.266;2023-03-03T17:29:04;56.10;;;35.73;;
20593;SDS011;10455;48.732;10.266;2023-03-03T17:34:19;47.70;;;30.77;;
20593;SDS011;10455;48.732;10.266;2023-03-03T17:39:38;49.83;;;30.70;;
20593;SDS011;10455;48.732;10.266;2023-03-03T17:44:59;46.73;;;29.67;;
20593;SDS011;10455;48.732;10.266;2023-03-03T17:50:09;58.67;;;34.67;;
20593;SDS011;10455;48.732;10.266;2023-03-03T18:00:51;49.47;;;31.50;;
20593;SDS011;10455;48.732;10.266;2023-03-03T18:06:08;49.07;;;30.27;;
20593;SDS011;10455;48.732;10.266;2023-03-03T18:11:26;53.67;;;33.23;;
20593;SDS011;10455;48.732;10.266;2023-03-03T18:16:43;59.33;;;35.67;;
20593;SDS011;10455;48.732;10.266;2023-03-03T18:21:56;56.07;;;35.23;;
20593;SDS011;10455;48.732;10.266;2023-03-03T18:27:22;56.67;;;37.73;;
20593;SDS011;10455;48.732;10.266;2023-03-03T18:32:39;66.70;;;37.10;;
20593;SDS011;10455;48.732;10.266;2023-03-03T18:37:41;61.37;;;35.17;;
20593;SDS011;10455;48.732;10.266;2023-03-03T18:42:46;61.57;;;36.30;;
20593;SDS011;10455;48.732;10.266;2023-03-03T18:48:01;58.47;;;35.00;;
20593;SDS011;10455;48.732;10.266;2023-03-03T18:53:11;64.53;;;35.37;;
20593;SDS011;10455;48.732;10.266;2023-03-03T18:58:30;57.07;;;34.57;;
20593;SDS011;10455;48.732;10.266;2023-03-03T19:08:57;67.57;;;37.77;;
20593;SDS011;10455;48.732;10.266;2023-03-03T19:14:13;70.97;;;39.37;;
20593;SDS011;10455;48.732;10.266;2023-03-03T19:19:24;72.50;;;39.27;;
20593;SDS011;10455;48.732;10.266;2023-03-03T19:24:33;78.53;;;42.03;;
20593;SDS011;10455;48.732;10.266;2023-03-03T19:35:09;79.87;;;46.23;;
20593;SDS011;10455;48.732;10.266;2023-03-03T19:40:26;90.70;;;50.67;;
20593;SDS011;10455;48.732;10.266;2023-03-03T19:50:59;84.93;;;44.83;;
20593;SDS011;10455;48.732;10.266;2023-03-03T19:56:10;77.03;;;43.03;;
20593;SDS011;10455;48.732;10.266;2023-03-03T20:01:22;83.77;;;42.40;;
20593;SDS011;10455;48.732;10.266;2023-03-03T20:06:31;83.03;;;41.47;;
20593;SDS011;10455;48.732;10.266;2023-03-03T20:11:44;85.23;;;45.97;;
20593;SDS011;10455;48.732;10.266;2023-03-03T20:16:57;100.27;;;48.73;;
20593;SDS011;10455;48.732;10.266;2023-03-03T20:22:18;87.77;;;46.13;;
20593;SDS011;10455;48.732;10.266;2023-03-03T20:27:32;89.33;;;48.13;;
20593;SDS011;10455;48.732;10.266;2023-03-03T20:32:49;86.57;;;45.47;;
20593;SDS011;10455;48.732;10.266;2023-03-03T20:38:04;97.70;;;51.77;;
20593;SDS011;10455;48.732;10.266;2023-03-03T20:43:16;112.13;;;56.77;;
20593;SDS011;10455;48.732;10.266;2023-03-03T20:48:36;101.77;;;52.27;;
20593;SDS011;10455;48.732;10.266;2023-03-03T20:53:50;104.27;;;50.83;;
20593;SDS011;10455;48.732;10.266;2023-03-03T20:59:05;93.47;;;46.83;;
20593;SDS011;10455;48.732;10.266;2023-03-03T21:04:21;96.03;;;47.17;;
20593;SDS011;10455;48.732;10.266;2023-03-03T21:09:25;101.20;;;49.50;;
20593;SDS011;10455;48.732;10.266;2023-03-03T21:14:29;98.57;;;47.00;;
20593;SDS011;10455;48.732;10.266;2023-03-03T21:19:34;88.97;;;44.67;;
20593;SDS011;10455;48.732;10.266;2023-03-03T21:24:49;102.37;;;47.60;;
20593;SDS011;10455;48.732;10.266;2023-03-03T21:30:07;98.47;;;47.20;;
20593;SDS011;10455;48.732;10.266;2023-03-03T21:35:14;108.40;;;52.97;;
20593;SDS011;10455;48.732;10.266;2023-03-03T21:40:18;88.60;;;47.73;;
20593;SDS011;10455;48.732;10.266;2023-03-03T21:45:24;94.43;;;46.40;;
20593;SDS011;10455;48.732;10.266;2023-03-03T21:50:28;85.97;;;44.67;;
20593;SDS011;10455;48.732;10.266;2023-03-03T21:55:32;91.00;;;46.30;;
20593;SDS011;10455;48.732;10.266;2023-03-03T22:00:33;86.70;;;44.83;;
20593;SDS011;10455;48.732;10.266;2023-03-03T22:05:37;93.03;;;44.50;;
20593;SDS011;10455;48.732;10.266;2023-03-03T22:10:40;90.10;;;44.20;;
20593;SDS011;10455;48.732;10.266;2023-03-03T22:15:42;78.57;;;41.57;;
20593;SDS011;10455;48.732;10.266;2023-03-03T22:20:46;85.20;;;40.53;;
20593;SDS011;10455;48.732;10.266;2023-03-03T22:25:49;84.67;;;41.97;;
20593;SDS011;10455;48.732;10.266;2023-03-03T22:30:51;78.67;;;39.87;;
20593;SDS011;10455;48.732;10.266;2023-03-03T22:35:54;82.20;;;42.13;;
20593;SDS011;10455;48.732;10.266;2023-03-03T22:40:56;77.93;;;40.33;;
20593;SDS011;10455;48.732;10.266;2023-03-03T22:45:58;79.23;;;40.60;;
20593;SDS011;10455;48.732;10.266;2023-03-03T22:51:01;77.13;;;39.53;;
20593;SDS011;10455;48.732;10.266;2023-03-03T22:56:04;77.93;;;39.57;;
20593;SDS011;10455;48.732;10.266;2023-03-03T23:01:06;79.53;;;39.80;;
20593;SDS011;10455;48.732;10.266;2023-03-03T23:06:09;75.87;;;36.33;;
20593;SDS011;10455;48.732;10.266;2023-03-03T23:11:11;69.00;;;35.27;;
20593;SDS011;10455;48.732;10.266;2023-03-03T23:16:13;72.67;;;33.50;;
20593;SDS011;10455;48.732;10.266;2023-03-03T23:21:16;74.90;;;35.47;;
20593;SDS011;10455;48.732;10.266;2023-03-03T23:26:18;66.43;;;34.83;;
20593;SDS011;10455;48.732;10.266;2023-03-03T23:31:20;74.57;;;37.73;;
20593;SDS011;10455;48.732;10.266;2023-03-03T23:36:25;75.83;;;37.27;;
20593;SDS011;10455;48.732;10.266;2023-03-03T23:41:27;73.63;;;33.97;;
20593;SDS011;10455;48.732;10.266;2023-03-03T23:46:29;61.53;;;31.63;;
20593;SDS011;10455;48.732;10.266;2023-03-03T23:51:33;56.73;;;31.10;;
20593;SDS011;10455;48.732;10.266;2023-03-03T23:56:35;63.33;;;30.27;;
